Time;durP1;ratioP1;P1;durP2;ratioP2;P2;SDS_P1;SDS_P2;PMS_P1;PMS_P2;Temp;Humidity;BMP_temperature;BMP_pressure;BME280_temperature;BME280_humidity;BME280_pressure;Samples;Min_cycle;Max_cycle;Signal;HPM_P1;HPM_P2
2024/04/19 00:01:38;;;;;;;3.47;2.20;;;12.10;59.30;13.90;101195.00;;;;5367542;26;20238;-76
2024/04/19 00:04:05;;;;;;;2.53;1.67;;;12.10;59.70;13.90;101181.00;;;;5371637;26;20241;-76
2024/04/19 00:06:34;;;;;;;3.08;1.67;;;12.10;59.50;13.80;101174.00;;;;5372398;26;20269;-76
2024/04/19 00:09:00;;;;;;;2.50;1.63;;;12.10;59.70;13.90;101172.00;;;;5372326;26;20238;-75
2024/04/19 00:11:28;;;;;;;3.03;1.65;;;12.10;59.80;13.90;101163.00;;;;5371365;26;20242;-76
2024/04/19 00:13:57;;;;;;;4.47;1.83;;;12.10;59.90;13.90;101151.00;;;;5372401;26;20230;-76
2024/04/19 00:16:26;;;;;;;3.40;1.63;;;12.20;60.00;13.90;101157.00;;;;5372004;26;20230;-76
2024/04/19 00:18:52;;;;;;;4.20;2.17;;;12.20;59.90;13.90;101161.00;;;;5371134;26;20323;-75
2024/04/19 00:21:20;;;;;;;4.45;1.90;;;12.20;60.20;13.90;101154.00;;;;5372386;26;20234;-76
2024/04/19 00:23:46;;;;;;;2.65;1.70;;;12.20;60.20;13.90;101142.00;;;;5339095;26;20232;-76
2024/04/19 00:26:15;;;;;;;2.13;1.50;;;12.20;60.20;13.90;101136.00;;;;5307518;26;20719;-76
2024/04/19 00:28:41;;;;;;;5.15;1.75;;;12.20;60.20;13.90;101136.00;;;;5316576;26;20252;-76
2024/04/19 00:31:12;;;;;;;2.45;1.30;;;12.20;60.10;13.80;101138.00;;;;5327940;26;20235;-76
2024/04/19 00:33:38;;;;;;;3.60;1.70;;;12.20;60.20;13.80;101124.00;;;;5341531;26;20325;-75
2024/04/19 00:36:07;;;;;;;3.45;1.83;;;12.30;60.40;13.80;101118.00;;;;5342611;26;20223;-76
2024/04/19 00:38:33;;;;;;;2.90;1.52;;;12.20;60.20;13.80;101123.00;;;;5344324;26;20219;-76
2024/04/19 00:41:02;;;;;;;3.50;1.75;;;12.20;61.10;13.90;101117.00;;;;5341734;26;20292;-76
2024/04/19 00:43:28;;;;;;;4.15;1.55;;;12.20;60.40;13.80;101117.00;;;;5356276;26;20333;-76
2024/04/19 00:45:57;;;;;;;3.53;1.63;;;12.20;60.50;13.80;101113.00;;;;5341372;26;20243;-76
2024/04/19 00:48:27;;;;;;;5.45;1.40;;;12.20;60.50;13.80;101114.00;;;;5341921;26;20332;-76
2024/04/19 00:50:58;;;;;;;4.18;1.60;;;12.20;60.60;13.80;101113.00;;;;5323952;26;20725;-76
2024/04/19 00:53:27;;;;;;;2.60;1.50;;;12.20;60.70;13.80;101100.00;;;;5342778;26;20339;-76
2024/04/19 00:55:58;;;;;;;2.17;1.27;;;12.20;60.50;13.80;101102.00;;;;5341437;26;20718;-76
2024/04/19 00:58:26;;;;;;;2.38;1.20;;;12.20;60.50;13.80;101089.00;;;;5343531;26;20219;-76
2024/04/19 01:00:55;;;;;;;2.67;1.10;;;12.20;60.50;13.80;101075.00;;;;5349840;26;20238;-76
2024/04/19 01:03:21;;;;;;;2.72;1.17;;;12.20;60.60;13.80;101059.00;;;;5341556;26;20337;-76
2024/04/19 01:05:52;;;;;;;4.18;1.15;;;12.20;60.60;13.80;101070.00;;;;5317027;26;20236;-76
2024/04/19 01:08:18;;;;;;;1.30;1.00;;;12.20;60.70;13.80;101058.00;;;;5335295;26;20345;-76
2024/04/19 01:10:47;;;;;;;2.83;1.30;;;12.20;60.80;13.80;101047.00;;;;5332695;26;20236;-77
2024/04/19 01:13:15;;;;;;;5.38;1.30;;;12.20;60.80;13.80;101041.00;;;;5337405;26;20235;-76
2024/04/19 01:15:41;;;;;;;4.90;1.63;;;12.20;60.70;13.80;101041.00;;;;5332430;26;20237;-76
2024/04/19 01:18:10;;;;;;;2.70;1.00;;;12.20;60.80;13.70;101040.00;;;;5319706;26;20352;-76
2024/04/19 01:20:36;;;;;;;2.13;1.05;;;12.20;60.90;13.70;101032.00;;;;5316096;26;20341;-76
2024/04/19 01:23:09;;;;;;;3.58;1.40;;;12.20;61.30;13.70;101032.00;;;;5338733;26;20277;-76
2024/04/19 01:25:37;;;;;;;1.10;1.00;;;12.20;61.30;13.70;101026.00;;;;5341026;26;20353;-76
2024/04/19 01:28:12;;;;;;;3.72;1.13;;;12.10;61.10;13.70;101026.00;;;;5334319;26;20374;-76
2024/04/19 01:30:40;;;;;;;1.90;0.95;;;12.10;61.10;13.70;101009.00;;;;5336037;26;20238;-76
2024/04/19 01:33:09;;;;;;;2.38;1.33;;;12.10;61.30;13.70;101009.00;;;;5330241;26;20287;-76
2024/04/19 01:35:35;;;;;;;3.75;0.73;;;12.10;61.30;13.70;101005.00;;;;5327204;26;20340;-76
2024/04/19 01:38:04;;;;;;;0.80;0.55;;;12.10;61.40;13.70;101002.00;;;;5335091;26;20336;-76
2024/04/19 01:40:31;;;;;;;1.42;0.70;;;12.10;61.40;13.70;100986.00;;;;5339826;26;20245;-76
2024/04/19 01:42:59;;;;;;;2.25;0.90;;;12.10;61.50;13.70;100980.00;;;;5319793;26;20303;-76
2024/04/19 01:45:28;;;;;;;2.75;0.95;;;12.10;61.60;13.70;100973.00;;;;5311163;26;20330;-76
2024/04/19 01:47:56;;;;;;;4.15;1.42;;;12.10;61.40;13.70;100974.00;;;;5329041;26;20276;-76
2024/04/19 01:50:22;;;;;;;1.60;1.00;;;12.10;61.60;13.70;100960.00;;;;5340704;26;20348;-76
2024/04/19 01:52:51;;;;;;;1.45;0.82;;;12.10;62.30;13.70;100955.00;;;;5311905;26;20706;-76
2024/04/19 01:55:17;;;;;;;2.55;1.05;;;12.10;61.60;13.70;100955.00;;;;5308863;26;20306;-75
2024/04/19 01:57:46;;;;;;;1.67;1.10;;;12.10;61.70;13.70;100951.00;;;;5321756;26;20332;-76
2024/04/19 02:00:13;;;;;;;5.18;1.17;;;12.10;61.80;13.70;100948.00;;;;5321954;26;20231;-77
2024/04/19 02:02:44;;;;;;;1.13;0.80;;;12.10;61.90;13.60;100942.00;;;;5331865;26;20239;-76
2024/04/19 02:05:10;;;;;;;3.55;0.90;;;12.10;61.90;13.70;100938.00;;;;5340679;26;20291;-76
2024/04/19 02:07:39;;;;;;;3.05;1.30;;;12.10;61.80;13.70;100932.00;;;;5340251;26;20745;-76
2024/04/19 02:10:07;;;;;;;2.85;1.33;;;12.10;62.20;13.60;100928.00;;;;5341489;26;20231;-77
2024/04/19 02:12:36;;;;;;;1.77;0.98;;;12.10;62.30;13.60;100916.00;;;;5342077;26;20758;-77
2024/04/19 02:15:02;;;;;;;1.88;0.98;;;12.00;62.70;13.60;100924.00;;;;5372601;26;20583;-76
2024/04/19 02:17:31;;;;;;;1.45;1.05;;;12.00;62.40;13.60;100900.00;;;;5342199;26;20302;-76
2024/04/19 02:20:00;;;;;;;3.88;0.95;;;12.00;62.30;13.60;100904.00;;;;5326121;26;20236;-77
2024/04/19 02:22:28;;;;;;;1.98;1.10;;;12.00;62.40;13.60;100906.00;;;;5317790;26;20278;-76
2024/04/19 02:24:54;;;;;;;2.83;1.10;;;12.00;62.50;13.60;100891.00;;;;5309272;26;20236;-77
2024/04/19 02:32:49;;;;;;;2.85;1.08;;;12.00;62.60;13.60;100872.00;;;;5380466;26;20636;-77
2024/04/19 02:35:20;;;;;;;2.03;1.30;;;12.00;62.70;13.60;100867.00;;;;5341542;26;20244;-76
2024/04/19 02:37:49;;;;;;;1.40;0.93;;;12.00;62.90;13.60;100870.00;;;;5318792;26;20242;-76
2024/04/19 02:40:18;;;;;;;2.38;0.88;;;12.00;63.50;13.60;100870.00;;;;5323261;26;20217;-76
2024/04/19 02:42:47;;;;;;;1.83;1.10;;;12.00;62.90;13.60;100848.00;;;;5342338;26;20725;-77
2024/04/19 02:45:15;;;;;;;4.20;1.23;;;12.10;63.20;13.70;100850.00;;;;5341899;26;20308;-75
2024/04/19 02:47:44;;;;;;;1.92;0.88;;;12.00;63.20;13.70;100837.00;;;;5339275;26;20242;-75
2024/04/19 02:50:12;;;;;;;3.40;1.15;;;12.00;63.30;13.70;100844.00;;;;5328933;26;20236;-76
2024/04/19 02:52:44;;;;;;;1.88;1.55;;;12.10;63.40;13.70;100834.00;;;;5334285;26;20540;-77
2024/04/19 02:55:12;;;;;;;2.53;1.27;;;12.10;63.70;13.70;100825.00;;;;5306610;26;20220;-77
2024/04/19 02:57:41;;;;;;;4.00;0.90;;;12.10;63.90;13.70;100830.00;;;;5340569;26;20320;-76
2024/04/19 03:00:11;;;;;;;1.67;1.15;;;12.10;63.60;13.70;100824.00;;;;5341283;26;20528;-76
2024/04/19 03:02:37;;;;;;;3.78;1.20;;;12.10;63.40;13.70;100813.00;;;;5341303;26;20243;-76
2024/04/19 03:05:07;;;;;;;1.73;1.05;;;12.10;63.50;13.70;100813.00;;;;5341405;26;20799;-75
2024/04/19 03:07:36;;;;;;;1.35;0.90;;;12.20;63.70;13.80;100799.00;;;;5340091;26;20350;-77
2024/04/19 03:10:08;;;;;;;3.33;1.30;;;12.20;63.70;13.70;100799.00;;;;5320248;26;20296;-76
2024/04/19 03:12:36;;;;;;;1.55;0.95;;;12.20;63.60;13.80;100795.00;;;;5332995;26;20328;-77
2024/04/19 03:15:05;;;;;;;3.13;1.35;;;12.20;63.70;13.80;100791.00;;;;5343097;26;20952;-76
2024/04/19 03:17:34;;;;;;;4.75;1.50;;;12.20;63.70;13.80;100789.00;;;;5311757;26;20960;-76
2024/04/19 03:20:03;;;;;;;2.30;1.55;;;12.20;63.70;13.80;100778.00;;;;5320336;26;20228;-76
2024/04/19 03:22:31;;;;;;;3.22;1.65;;;12.20;63.60;13.80;100779.00;;;;5307325;26;20680;-76
2024/04/19 03:25:00;;;;;;;2.63;1.58;;;12.30;63.90;13.90;100768.00;;;;5332397;26;20231;-76
2024/04/19 03:27:31;;;;;;;2.88;1.20;;;12.30;63.90;13.80;100762.00;;;;5340655;26;20530;-77
2024/04/19 03:30:00;;;;;;;2.03;1.20;;;12.30;64.00;13.90;100761.00;;;;5341373;26;20227;-76
2024/04/19 03:32:28;;;;;;;2.05;1.05;;;12.30;63.80;13.90;100757.00;;;;5347045;26;20831;-77
2024/04/19 03:34:57;;;;;;;2.78;1.50;;;12.30;64.00;13.90;100757.00;;;;5321179;26;20232;-76
2024/04/19 03:37:26;;;;;;;1.73;1.13;;;12.30;64.30;13.90;100751.00;;;;5327152;26;20231;-77
2024/04/19 03:39:55;;;;;;;1.50;1.00;;;12.40;64.30;13.90;100735.00;;;;5339657;26;20305;-77
2024/04/19 03:42:23;;;;;;;1.70;1.00;;;12.40;64.80;14.00;100733.00;;;;5339092;26;20361;-77
2024/04/19 03:47:39;;;;;;;2.78;0.70;;;12.40;64.50;14.00;100721.00;;;;5342574;26;20284;-77
2024/04/19 03:50:09;;;;;;;1.10;0.85;;;12.40;64.30;14.00;100725.00;;;;5353150;26;20377;-77
2024/04/19 03:52:37;;;;;;;1.88;0.82;;;12.40;64.50;14.10;100715.00;;;;5306783;26;20342;-77
2024/04/19 03:55:07;;;;;;;1.42;0.95;;;12.50;64.50;14.10;100722.00;;;;5323569;26;20239;-77
2024/04/19 03:57:35;;;;;;;1.42;0.73;;;12.50;64.60;14.10;100716.00;;;;5321306;26;20960;-76
2024/04/19 04:00:08;;;;;;;0.75;0.63;;;12.50;64.40;14.10;100717.00;;;;5342003;26;20334;-77
2024/04/19 04:02:37;;;;;;;1.63;0.77;;;12.50;64.50;14.10;100714.00;;;;5340899;26;20578;-77
2024/04/19 04:05:05;;;;;;;0.80;0.70;;;12.50;64.50;14.10;100708.00;;;;5342739;26;20231;-77
2024/04/19 04:07:34;;;;;;;1.02;0.93;;;12.50;64.60;14.10;100704.00;;;;5328384;26;20244;-77
2024/04/19 04:10:03;;;;;;;1.65;0.68;;;12.60;64.70;14.20;100689.00;;;;5338892;26;20236;-77
2024/04/19 04:12:32;;;;;;;0.73;0.73;;;12.60;64.70;14.20;100693.00;;;;5322236;26;20231;-77
2024/04/19 04:15:01;;;;;;;1.05;0.75;;;12.60;64.80;14.20;100685.00;;;;5331395;26;20239;-77
2024/04/19 04:17:32;;;;;;;0.90;0.60;;;12.60;64.80;14.20;100687.00;;;;5332927;26;20243;-77
2024/04/19 04:20:01;;;;;;;1.02;0.93;;;12.60;64.90;14.30;100687.00;;;;5324356;26;20240;-77
2024/04/19 04:22:29;;;;;;;0.85;0.80;;;12.70;65.20;14.30;100690.00;;;;5316306;26;20337;-76
2024/04/19 04:24:58;;;;;;;0.47;0.40;;;12.70;65.10;14.30;100683.00;;;;5325555;26;20317;-77
2024/04/19 04:27:27;;;;;;;1.00;0.77;;;12.70;65.00;14.30;100683.00;;;;5336143;26;20733;-77
2024/04/19 04:29:55;;;;;;;0.90;0.70;;;12.70;65.10;14.40;100675.00;;;;5324352;26;20235;-77
2024/04/19 04:32:24;;;;;;;0.68;0.68;;;12.70;65.10;14.40;100667.00;;;;5342034;26;20243;-77
2024/04/19 04:34:55;;;;;;;2.28;0.80;;;12.80;65.40;14.40;100673.00;;;;5336494;26;20311;-77
2024/04/19 04:37:24;;;;;;;0.80;0.80;;;12.80;65.40;14.50;100666.00;;;;5332874;26;20245;-77
2024/04/19 04:39:52;;;;;;;1.60;0.90;;;12.80;65.40;14.50;100661.00;;;;5315123;26;20235;-77
2024/04/19 04:42:21;;;;;;;1.02;0.93;;;12.90;65.50;14.60;100659.00;;;;5342720;26;20235;-77
2024/04/19 04:44:49;;;;;;;1.25;1.00;;;12.90;65.50;14.60;100665.00;;;;5339633;26;20324;-77
2024/04/19 04:47:18;;;;;;;1.08;0.98;;;12.90;65.50;14.60;100656.00;;;;5340621;26;20306;-77
2024/04/19 04:49:47;;;;;;;1.45;1.20;;;13.00;65.60;14.60;100661.00;;;;5339573;26;20231;-77
2024/04/19 04:52:18;;;;;;;2.47;1.27;;;13.00;65.80;14.60;100661.00;;;;5341284;26;20340;-77
2024/04/19 04:54:46;;;;;;;2.45;1.40;;;13.00;65.70;14.70;100655.00;;;;5340066;26;20287;-77
2024/04/19 04:57:15;;;;;;;2.38;1.52;;;13.10;65.70;14.70;100653.00;;;;5338587;26;20344;-77
2024/04/19 04:59:43;;;;;;;2.58;1.60;;;13.10;65.90;14.80;100655.00;;;;5341690;26;20334;-77
2024/04/19 05:02:13;;;;;;;2.08;1.42;;;13.20;65.80;14.80;100648.00;;;;5339723;26;20228;-77
2024/04/19 05:04:45;;;;;;;2.47;2.05;;;13.20;66.00;14.80;100643.00;;;;5342317;26;20299;-77
2024/04/19 05:07:14;;;;;;;4.05;1.70;;;13.20;66.50;14.90;100652.00;;;;5338521;26;20242;-77
2024/04/19 05:09:45;;;;;;;6.90;1.83;;;13.30;65.90;14.90;100652.00;;;;5343294;26;20355;-77
2024/04/19 05:12:13;;;;;;;3.28;1.70;;;13.30;66.00;14.90;100655.00;;;;5341874;26;20328;-77
2024/04/19 05:14:42;;;;;;;4.72;1.98;;;13.30;65.90;15.00;100649.00;;;;5321255;26;20232;-77
2024/04/19 05:17:11;;;;;;;5.50;1.75;;;13.40;66.00;15.00;100651.00;;;;5342554;26;20242;-77
2024/04/19 05:19:39;;;;;;;4.05;1.85;;;13.40;66.00;15.00;100656.00;;;;5321474;26;20380;-77
2024/04/19 05:22:08;;;;;;;4.32;1.83;;;13.40;66.00;15.10;100652.00;;;;5344782;26;20243;-77
2024/04/19 05:24:37;;;;;;;2.92;1.88;;;13.50;66.00;15.10;100664.00;;;;5338683;26;20610;-77
2024/04/19 05:27:08;;;;;;;3.28;1.40;;;13.50;66.00;15.10;100658.00;;;;5340108;26;20235;-76
2024/04/19 05:29:36;;;;;;;3.55;1.55;;;13.50;65.90;15.20;100656.00;;;;5342705;26;20236;-77
2024/04/19 05:32:05;;;;;;;2.63;1.27;;;13.60;65.90;15.20;100656.00;;;;5336453;26;20255;-77
2024/04/19 05:34:34;;;;;;;3.15;1.27;;;13.60;65.90;15.20;100663.00;;;;5334304;26;20244;-77
2024/04/19 05:37:03;;;;;;;1.95;1.48;;;13.70;66.00;15.20;100658.00;;;;5327784;26;20337;-77
2024/04/19 05:39:31;;;;;;;4.60;1.60;;;13.70;65.90;15.30;100653.00;;;;5342388;26;20320;-77
2024/04/19 05:42:00;;;;;;;4.75;1.65;;;13.70;65.80;15.30;100656.00;;;;5317087;26;20236;-78
2024/04/19 05:44:31;;;;;;;4.72;1.55;;;13.70;65.80;15.30;100661.00;;;;5335351;26;20703;-78
2024/04/19 05:47:01;;;;;;;4.15;1.20;;;13.80;65.90;15.30;100657.00;;;;5338824;26;20235;-77
2024/04/19 05:49:29;;;;;;;3.40;1.25;;;13.80;65.80;15.30;100654.00;;;;5308095;26;20271;-78
2024/04/19 05:51:58;;;;;;;2.78;1.40;;;13.80;65.80;15.30;100651.00;;;;5327011;26;20353;-76
2024/04/19 05:54:26;;;;;;;4.28;1.05;;;13.80;65.80;15.30;100662.00;;;;5333703;26;20597;-76
2024/04/19 05:56:55;;;;;;;3.67;0.95;;;13.90;65.70;15.30;100656.00;;;;5316334;26;20236;-77
2024/04/19 05:59:24;;;;;;;5.47;1.40;;;13.90;65.60;15.30;100657.00;;;;5324926;26;20329;-76
2024/04/19 06:01:56;;;;;;;6.00;1.40;;;13.90;65.50;15.30;100650.00;;;;5330493;26;20283;-77
2024/04/19 06:04:24;;;;;;;3.20;0.95;;;13.90;65.60;15.40;100655.00;;;;5324939;26;20287;-77
2024/04/19 06:06:56;;;;;;;5.10;1.40;;;13.90;65.60;15.40;100660.00;;;;5334605;26;20235;-76
2024/04/19 06:09:25;;;;;;;3.53;1.23;;;13.90;65.70;15.40;100651.00;;;;5348797;26;20551;-76
2024/04/19 06:11:53;;;;;;;3.17;1.10;;;13.90;65.60;15.40;100657.00;;;;5328737;26;20248;-75
2024/04/19 06:14:22;;;;;;;7.40;2.00;;;13.90;65.50;15.40;100653.00;;;;5332966;26;20345;-77
2024/04/19 06:16:54;;;;;;;6.45;1.40;;;13.90;65.50;15.40;100657.00;;;;5320828;26;20656;-77
2024/04/19 06:19:23;;;;;;;5.97;1.13;;;14.00;65.60;15.50;100649.00;;;;5321736;26;20334;-77
2024/04/19 06:21:51;;;;;;;3.30;1.45;;;14.00;65.60;15.50;100650.00;;;;5308609;26;20284;-77
2024/04/19 06:24:20;;;;;;;2.47;1.20;;;14.00;65.60;15.60;100650.00;;;;5310303;26;20244;-76
2024/04/19 06:26:49;;;;;;;3.03;1.48;;;14.00;65.60;15.60;100659.00;;;;5308044;26;20746;-76
2024/04/19 06:29:17;;;;;;;7.13;1.95;;;14.00;65.70;15.60;100653.00;;;;5319953;26;20350;-76
2024/04/19 06:31:46;;;;;;;3.15;1.27;;;14.10;65.80;15.70;100639.00;;;;5307973;26;20243;-76
2024/04/19 06:34:18;;;;;;;3.47;1.30;;;14.10;65.60;15.60;100641.00;;;;5335757;26;20235;-77
2024/04/19 06:36:46;;;;;;;3.40;1.20;;;14.10;65.70;15.70;100650.00;;;;5324663;26;20297;-77
2024/04/19 06:39:23;;;;;;;6.45;1.83;;;14.20;65.80;15.70;100652.00;;;;5321805;26;20378;-79
2024/04/19 06:41:52;;;;;;;6.75;1.42;;;14.20;65.80;15.80;100634.00;;;;5323985;26;20242;-78
2024/04/19 06:44:20;;;;;;;6.85;1.70;;;14.20;65.60;15.80;100629.00;;;;5325287;26;20233;-78
2024/04/19 06:46:49;;;;;;;6.88;1.42;;;14.20;65.60;15.90;100633.00;;;;5309075;26;20236;-78
2024/04/19 06:49:20;;;;;;;5.93;1.30;;;14.30;65.80;15.90;100634.00;;;;5318426;26;20304;-78
2024/04/19 06:51:49;;;;;;;2.95;1.00;;;14.30;65.90;16.00;100640.00;;;;5329674;26;20356;-78
2024/04/19 06:54:17;;;;;;;3.58;1.23;;;14.30;65.80;16.00;100631.00;;;;5347917;26;20308;-78
2024/04/19 06:56:46;;;;;;;3.03;1.13;;;14.40;65.70;16.00;100634.00;;;;5362255;26;20305;-78
2024/04/19 06:59:15;;;;;;;6.82;1.77;;;14.40;65.60;16.00;100630.00;;;;5341687;26;20231;-78
2024/04/19 07:01:43;;;;;;;6.30;1.40;;;14.40;65.60;16.00;100624.00;;;;5341291;26;20252;-78
2024/04/19 07:04:12;;;;;;;4.03;1.35;;;14.40;65.40;16.00;100627.00;;;;5330327;26;20263;-78
2024/04/19 07:06:43;;;;;;;5.22;1.10;;;14.40;65.30;16.00;100624.00;;;;5345646;26;20780;-78
2024/04/19 07:09:13;;;;;;;4.85;1.63;;;14.40;65.30;16.00;100622.00;;;;5341299;26;20295;-79
2024/04/19 07:11:42;;;;;;;3.28;1.23;;;14.40;65.10;15.90;100614.00;;;;5333335;26;20283;-78
2024/04/19 07:14:11;;;;;;;2.40;0.73;;;14.40;65.00;15.90;100625.00;;;;5309201;26;20244;-78
2024/04/19 07:16:40;;;;;;;3.03;0.82;;;14.40;64.90;15.90;100619.00;;;;5330198;26;20263;-79
2024/04/19 07:19:08;;;;;;;3.92;0.80;;;14.40;64.80;15.80;100611.00;;;;5331569;26;20678;-78
2024/04/19 07:21:37;;;;;;;3.22;0.95;;;14.40;64.80;15.80;100625.00;;;;5313537;26;20243;-78
2024/04/19 07:24:09;;;;;;;3.67;0.98;;;14.30;64.70;15.80;100635.00;;;;5331610;26;20243;-79
2024/04/19 07:26:38;;;;;;;2.45;0.52;;;14.30;64.80;15.80;100611.00;;;;5331777;26;20244;-78
2024/04/19 07:29:07;;;;;;;4.10;1.50;;;14.30;64.90;15.80;100613.00;;;;5325779;26;20251;-79
2024/04/19 07:31:36;;;;;;;1.88;0.65;;;14.30;65.00;15.70;100618.00;;;;5324360;26;20596;-78
2024/04/19 07:34:05;;;;;;;1.67;0.65;;;14.20;64.70;15.70;100615.00;;;;5327587;26;20235;-79
2024/04/19 07:36:33;;;;;;;2.38;0.60;;;14.20;64.70;15.70;100616.00;;;;5337351;26;20335;-79
2024/04/19 07:39:03;;;;;;;3.78;0.70;;;14.20;64.70;15.60;100618.00;;;;5337187;26;20235;-78
2024/04/19 07:41:34;;;;;;;3.60;0.82;;;14.20;64.70;15.60;100619.00;;;;5333488;26;20885;-79
2024/04/19 07:44:03;;;;;;;3.80;1.00;;;14.10;64.70;15.60;100620.00;;;;5313131;26;20357;-78
2024/04/19 07:46:31;;;;;;;4.07;0.60;;;14.10;64.70;15.60;100611.00;;;;5305269;26;20221;-78
2024/04/19 07:49:00;;;;;;;3.85;0.90;;;14.10;64.70;15.70;100615.00;;;;5337846;26;20226;-78
2024/04/19 07:51:29;;;;;;;2.13;0.50;;;14.10;64.70;15.70;100609.00;;;;5334814;26;20408;-78
2024/04/19 07:53:58;;;;;;;4.25;0.65;;;14.10;65.00;15.80;100614.00;;;;5322751;26;20247;-78
2024/04/19 07:56:30;;;;;;;3.90;0.80;;;14.10;65.20;15.80;100604.00;;;;5328647;26;20340;-77
2024/04/19 07:59:02;;;;;;;1.42;0.68;;;14.10;65.40;15.90;100600.00;;;;5326622;26;20597;-77
2024/04/19 08:01:32;;;;;;;2.20;0.65;;;14.20;65.60;16.00;100591.00;;;;5339726;26;20321;-77
2024/04/19 08:04:01;;;;;;;1.85;0.63;;;14.30;65.70;16.00;100596.00;;;;5337388;26;20270;-78
2024/04/19 08:06:29;;;;;;;2.78;0.70;;;14.30;65.70;16.00;100602.00;;;;5340645;26;20344;-78
2024/04/19 08:08:58;;;;;;;1.45;0.70;;;14.30;65.50;16.00;100596.00;;;;5340987;26;20243;-78
2024/04/19 08:11:27;;;;;;;2.70;0.65;;;14.40;65.30;16.00;100591.00;;;;5324439;26;20240;-78
2024/04/19 08:13:55;;;;;;;4.72;0.70;;;14.40;65.00;16.00;100597.00;;;;5333328;26;20811;-78
2024/04/19 08:16:26;;;;;;;1.40;0.40;;;14.40;65.00;16.00;100583.00;;;;5339666;26;20223;-78
2024/04/19 08:18:57;;;;;;;3.42;0.68;;;14.40;64.90;16.00;100587.00;;;;5339528;26;20235;-78
2024/04/19 08:21:25;;;;;;;2.55;0.70;;;14.40;64.80;16.00;100590.00;;;;5339348;26;20290;-79
2024/04/19 08:23:54;;;;;;;0.85;0.35;;;14.40;64.70;16.00;100579.00;;;;5334261;26;20235;-78
2024/04/19 08:26:24;;;;;;;1.77;0.70;;;14.40;64.70;16.00;100568.00;;;;5333706;26;20562;-78
2024/04/19 08:28:53;;;;;;;2.20;0.65;;;14.40;64.80;16.10;100576.00;;;;5339161;26;20231;-78
2024/04/19 08:31:21;;;;;;;1.42;0.40;;;14.40;64.90;16.10;100573.00;;;;5339602;26;20336;-79
2024/04/19 08:33:52;;;;;;;4.47;0.70;;;14.40;65.30;16.20;100580.00;;;;5324490;26;20244;-78
2024/04/19 08:36:22;;;;;;;1.95;0.57;;;14.50;65.50;16.20;100574.00;;;;5334574;26;20255;-79
2024/04/19 08:38:51;;;;;;;5.05;0.73;;;14.50;65.40;16.20;100583.00;;;;5317088;26;20286;-77
2024/04/19 08:41:22;;;;;;;2.80;0.55;;;14.60;65.20;16.20;100593.00;;;;5340777;26;20231;-78
2024/04/19 08:43:52;;;;;;;3.60;0.57;;;14.60;65.10;16.20;100599.00;;;;5340019;26;20231;-79
2024/04/19 08:46:23;;;;;;;1.27;0.40;;;14.60;65.00;16.20;100609.00;;;;5342774;26;20325;-78
2024/04/19 08:48:56;;;;;;;4.63;0.93;;;14.60;64.70;16.10;100613.00;;;;5340304;26;20228;-78
2024/04/19 08:51:26;;;;;;;0.70;0.40;;;14.60;64.60;16.10;100621.00;;;;5325840;26;20239;-79
2024/04/19 08:53:57;;;;;;;2.53;0.65;;;14.50;64.50;16.00;100618.00;;;;5337199;26;20710;-78
2024/04/19 08:56:28;;;;;;;3.28;0.47;;;14.50;64.50;16.00;100614.00;;;;5342882;26;20243;-78
2024/04/19 08:58:58;;;;;;;2.28;0.40;;;14.50;64.60;16.00;100623.00;;;;5342084;26;20929;-78
2024/04/19 09:01:26;;;;;;;2.45;0.65;;;14.40;64.60;15.90;100623.00;;;;5333577;26;20240;-77
2024/04/19 09:03:57;;;;;;;1.02;0.40;;;14.40;64.60;15.80;100624.00;;;;5342217;26;20838;-77
2024/04/19 09:06:28;;;;;;;1.50;0.30;;;14.40;64.40;15.90;100624.00;;;;5320749;26;20340;-77
2024/04/19 09:08:57;;;;;;;0.50;0.17;;;14.40;64.50;15.90;100622.00;;;;5327818;26;20235;-77
2024/04/19 09:11:26;;;;;;;3.00;0.30;;;14.30;64.40;15.80;100614.00;;;;5325595;26;20245;-77
2024/04/19 09:13:55;;;;;;;1.83;0.30;;;14.30;64.50;15.80;100605.00;;;;5346032;26;20344;-77
2024/04/19 09:16:23;;;;;;;1.52;0.40;;;14.30;64.60;15.90;100610.00;;;;5344135;26;20356;-78
2024/04/19 09:18:52;;;;;;;1.35;0.32;;;14.30;64.70;15.90;100606.00;;;;5344184;26;20266;-77
2024/04/19 09:21:23;;;;;;;1.90;0.30;;;14.30;64.80;16.00;100613.00;;;;5341051;26;20243;-77
2024/04/19 09:23:52;;;;;;;1.55;0.40;;;14.30;65.10;16.10;100617.00;;;;5325684;26;20240;-77
2024/04/19 09:26:21;;;;;;;1.05;0.38;;;14.40;65.50;16.20;100611.00;;;;5339864;26;20343;-77
2024/04/19 09:28:50;;;;;;;2.35;0.60;;;14.50;65.90;16.30;100617.00;;;;5348657;26;20284;-78
2024/04/19 09:31:19;;;;;;;2.40;0.60;;;14.60;66.10;16.40;100613.00;;;;5352118;26;20319;-77
2024/04/19 09:33:48;;;;;;;1.00;0.40;;;14.70;66.20;16.50;100613.00;;;;5339025;26;20243;-76
2024/04/19 09:36:20;;;;;;;1.45;0.50;;;14.80;66.10;16.60;100623.00;;;;5341291;26;20336;-77
2024/04/19 09:38:54;;;;;;;1.13;0.20;;;14.80;65.80;16.60;100616.00;;;;5338104;26;20249;-78
2024/04/19 09:41:26;;;;;;;0.28;0.17;;;14.90;65.50;16.70;100617.00;;;;5341700;26;20223;-77
2024/04/19 09:43:58;;;;;;;1.45;0.32;;;15.00;65.20;16.80;100614.00;;;;5341279;26;20266;-76
2024/04/19 09:46:31;;;;;;;0.82;0.20;;;15.10;65.10;16.80;100626.00;;;;5341405;26;20231;-76
2024/04/19 09:49:03;;;;;;;0.47;0.22;;;15.20;64.80;16.80;100605.00;;;;5336357;26;20734;-76
2024/04/19 09:51:39;;;;;;;1.02;0.20;;;15.20;64.50;16.80;100619.00;;;;5331643;26;20240;-76
2024/04/19 09:54:15;;;;;;;0.77;0.40;;;15.30;64.50;16.80;100609.00;;;;5338708;26;20317;-76
2024/04/19 09:56:59;;;;;;;1.00;0.30;;;15.30;64.30;16.80;100614.00;;;;5341758;26;20243;-77
2024/04/19 09:59:29;;;;;;;0.85;0.28;;;15.40;64.40;17.00;100608.00;;;;5338632;26;20300;-77
2024/04/19 10:02:00;;;;;;;0.25;0.10;;;15.40;64.30;17.10;100596.00;;;;5337869;26;20263;-77
2024/04/19 10:04:29;;;;;;;0.57;0.22;;;15.50;64.40;17.10;100607.00;;;;5340487;26;20235;-77
2024/04/19 10:07:00;;;;;;;0.75;0.20;;;15.50;64.00;17.10;100603.00;;;;5336889;26;20691;-77
2024/04/19 10:09:33;;;;;;;0.60;0.30;;;15.50;63.50;17.10;100605.00;;;;5336153;26;20243;-78
2024/04/19 10:12:04;;;;;;;1.00;0.30;;;15.60;63.40;17.10;100602.00;;;;5324151;26;20299;-78
2024/04/19 10:14:34;;;;;;;1.35;0.38;;;15.60;63.30;17.10;100604.00;;;;5340987;26;20274;-78
2024/04/19 10:17:04;;;;;;;1.25;0.30;;;15.60;63.20;17.20;100593.00;;;;5340423;26;20565;-78
2024/04/19 10:19:33;;;;;;;0.98;0.28;;;15.70;63.10;17.20;100594.00;;;;5315849;26;20780;-78
2024/04/19 10:22:03;;;;;;;1.77;0.28;;;15.70;63.20;17.30;100594.00;;;;5330374;26;20364;-79
2024/04/19 10:24:38;;;;;;;1.35;0.30;;;15.70;63.40;17.30;100591.00;;;;5320928;26;20256;-77
2024/04/19 10:27:07;;;;;;;1.27;0.30;;;15.80;63.40;17.40;100590.00;;;;5319441;26;20239;-77
2024/04/19 10:29:36;;;;;;;1.17;0.30;;;15.80;63.20;17.40;100587.00;;;;5325721;26;20240;-78
2024/04/19 10:32:05;;;;;;;1.52;0.17;;;15.90;63.10;17.50;100590.00;;;;5329195;26;20307;-79
2024/04/19 10:34:35;;;;;;;3.95;0.50;;;15.90;63.10;17.50;100581.00;;;;5326434;26;20227;-78
2024/04/19 10:37:04;;;;;;;2.25;0.47;;;16.00;62.90;17.50;100586.00;;;;5327921;26;20243;-78
2024/04/19 10:39:35;;;;;;;2.13;0.38;;;16.00;62.60;17.50;100575.00;;;;5322623;26;20235;-77
2024/04/19 10:42:04;;;;;;;1.58;0.30;;;16.10;62.60;17.60;100582.00;;;;5331407;26;20391;-78
2024/04/19 10:44:33;;;;;;;1.10;0.47;;;16.10;62.50;17.60;100587.00;;;;5333926;26;20242;-78
2024/04/19 10:47:02;;;;;;;1.67;0.55;;;16.20;62.40;17.60;100593.00;;;;5324799;26;20251;-78
2024/04/19 10:49:31;;;;;;;1.27;0.55;;;16.20;62.40;17.70;100575.00;;;;5342155;26;20572;-77
2024/04/19 10:52:01;;;;;;;2.45;0.60;;;16.20;62.10;17.60;100572.00;;;;5340816;26;20231;-78
2024/04/19 10:54:30;;;;;;;2.70;0.47;;;16.20;61.70;17.60;100578.00;;;;5341308;26;20340;-77
2024/04/19 10:57:02;;;;;;;3.40;0.50;;;16.20;61.40;17.50;100598.00;;;;5338165;26;20231;-78
2024/04/19 10:59:31;;;;;;;1.85;0.50;;;16.20;61.30;17.50;100587.00;;;;5342229;26;20931;-78
2024/04/19 11:02:01;;;;;;;2.10;0.75;;;16.10;61.10;17.40;100596.00;;;;5341100;26;20305;-78
2024/04/19 11:04:31;;;;;;;3.08;0.52;;;16.10;60.90;17.40;100570.00;;;;5336722;26;20243;-79